Terminal Aerodrome Forecast
Issued by NWS

Home | Current Version | Previous Version | Text Only | Print | Product List | Glossary On
Versions: 1 2 3 4 5 6 7 8 9 10 11 12 13 14 15 16 17 18 19
000
FTUS43 KMQT 300520
TAFCMX
TAF
KCMX 300520Z 3006/3106 35016G22KT 3SM -SHSN OVC020
     FM301000 33010KT 6SM -SHSN OVC025
     FM301800 26005KT P6SM -SHSN OVC025
     FM310000 21005KT P6SM SCT025 BKN060=

USA.gov is the U.S. government's official web portal to all federal, state and local government web resources and services.